createdAt,value
2024-01-29T00:02:24.018Z,76.16
2024-01-29T00:04:50.713Z,76.20
2024-01-29T00:07:17.717Z,76.32
2024-01-29T00:09:46.530Z,76.11
2024-01-29T00:12:13.212Z,76.14
2024-01-29T00:14:40.054Z,76.48
2024-01-29T00:17:06.725Z,75.98
2024-01-29T00:19:33.455Z,75.91
2024-01-29T00:22:00.209Z,75.70
2024-01-29T00:24:27.025Z,75.57
2024-01-29T00:26:53.701Z,75.36
2024-01-29T00:29:20.389Z,74.94
2024-01-29T00:31:47.111Z,75.26
2024-01-29T00:34:14.161Z,75.35
2024-01-29T00:36:41.158Z,75.35
2024-01-29T00:39:10.401Z,75.53
2024-01-29T00:41:37.428Z,75.60
2024-01-29T00:44:05.043Z,75.80
2024-01-29T00:46:31.894Z,75.89
2024-01-29T00:48:58.659Z,75.65
2024-01-29T00:51:25.523Z,75.67
2024-01-29T00:53:52.328Z,75.26
2024-01-29T00:56:18.996Z,75.72
2024-01-29T00:58:45.779Z,75.71
2024-01-29T01:01:12.583Z,75.47
2024-01-29T01:03:39.396Z,75.72
2024-01-29T01:06:06.172Z,76.06
2024-01-29T01:08:32.927Z,76.04
2024-01-29T01:10:59.606Z,76.27
2024-01-29T01:13:26.295Z,76.13
2024-01-29T01:15:53.004Z,76.38
2024-01-29T01:18:19.802Z,76.29
2024-01-29T01:20:46.542Z,76.07
2024-01-29T01:23:13.559Z,76.56
2024-01-29T01:25:40.199Z,76.72
2024-01-29T01:28:07.779Z,76.11
2024-01-29T01:30:34.578Z,76.59
2024-01-29T01:33:01.982Z,76.30
2024-01-29T01:35:28.806Z,76.26
2024-01-29T01:37:55.586Z,76.24
2024-01-29T01:40:22.292Z,76.36
2024-01-29T01:42:49.536Z,76.03
2024-01-29T01:45:19.183Z,76.46
2024-01-29T01:47:45.905Z,76.28
2024-01-29T01:50:12.569Z,76.30
2024-01-29T01:52:39.874Z,76.09
2024-01-29T01:55:06.964Z,76.13
2024-01-29T01:57:33.715Z,76.09
2024-01-29T02:00:00.526Z,75.88
2024-01-29T02:02:27.214Z,75.18
2024-01-29T02:04:53.981Z,76.19
2024-01-29T02:07:20.898Z,76.38
2024-01-29T02:09:48.216Z,76.46
2024-01-29T02:12:14.925Z,76.47
2024-01-29T02:14:41.562Z,76.84
2024-01-29T02:17:08.239Z,76.83
2024-01-29T02:19:35.225Z,76.71
2024-01-29T02:22:02.020Z,76.64
2024-01-29T02:24:28.756Z,76.72
2024-01-29T02:26:55.400Z,76.50
2024-01-29T02:29:23.276Z,76.53
2024-01-29T02:31:49.937Z,76.36
2024-01-29T02:34:17.062Z,76.58
2024-01-29T02:36:44.954Z,76.22
2024-01-29T02:39:11.658Z,76.25
2024-01-29T02:41:38.324Z,76.38
2024-01-29T02:44:05.296Z,76.35
2024-01-29T02:46:31.977Z,76.32
2024-01-29T02:48:58.721Z,76.28
2024-01-29T02:51:25.532Z,76.01
2024-01-29T02:53:52.259Z,76.62
2024-01-29T02:56:18.903Z,76.40
2024-01-29T02:58:45.616Z,76.42
2024-01-29T03:01:12.506Z,76.38
2024-01-29T03:03:39.449Z,77.03
2024-01-29T03:06:06.682Z,76.85
2024-01-29T03:08:33.386Z,76.90
2024-01-29T03:11:00.030Z,77.04
2024-01-29T03:13:26.642Z,77.16
2024-01-29T03:15:53.355Z,77.28
2024-01-29T03:18:20.120Z,77.40
2024-01-29T03:20:46.884Z,77.77
2024-01-29T03:23:13.582Z,77.75
2024-01-29T03:25:40.268Z,77.97
2024-01-29T03:28:07.115Z,77.98
2024-01-29T03:30:33.867Z,78.04
2024-01-29T03:33:00.701Z,78.29
2024-01-29T03:35:27.456Z,78.26
2024-01-29T03:37:54.117Z,78.49
2024-01-29T03:40:20.779Z,78.64
2024-01-29T03:42:47.572Z,78.42
2024-01-29T03:45:14.406Z,78.17
2024-01-29T03:47:41.050Z,78.33
2024-01-29T03:50:08.204Z,78.60
2024-01-29T03:52:34.941Z,78.10
2024-01-29T03:55:01.664Z,78.09
2024-01-29T03:57:28.362Z,78.22
2024-01-29T03:59:57.684Z,78.08
2024-01-29T04:02:27.055Z,78.24
2024-01-29T04:04:53.906Z,78.13
2024-01-29T04:07:20.707Z,78.07
2024-01-29T04:09:47.463Z,77.89
2024-01-29T04:12:14.589Z,78.05
2024-01-29T04:14:41.263Z,77.66
2024-01-29T04:17:09.094Z,77.90
2024-01-29T04:19:35.972Z,77.58
2024-01-29T04:22:02.884Z,77.84
2024-01-29T04:24:30.242Z,77.52
2024-01-29T04:26:57.306Z,77.71
2024-01-29T04:29:24.209Z,77.46
2024-01-29T04:31:50.949Z,77.70
2024-01-29T04:34:18.052Z,77.36
2024-01-29T04:36:45.684Z,77.10
2024-01-29T04:39:12.407Z,76.94
2024-01-29T04:41:39.419Z,76.60
2024-01-29T04:44:06.129Z,76.63
2024-01-29T04:46:32.826Z,76.40
2024-01-29T04:48:59.690Z,76.29
2024-01-29T04:51:27.184Z,76.62
2024-01-29T04:53:53.874Z,76.64
2024-01-29T04:56:20.605Z,76.54
2024-01-29T04:58:47.530Z,76.91
2024-01-29T05:01:14.401Z,77.06
2024-01-29T05:03:41.231Z,76.77
2024-01-29T05:06:08.127Z,77.08
2024-01-29T05:08:34.861Z,77.08
2024-01-29T05:11:01.917Z,76.96
2024-01-29T05:13:28.835Z,76.75
2024-01-29T05:15:55.553Z,77.23
2024-01-29T05:18:22.359Z,77.27
2024-01-29T05:20:49.079Z,76.96
2024-01-29T05:23:15.815Z,77.13
2024-01-29T05:25:42.666Z,77.20
2024-01-29T05:28:09.392Z,77.26
2024-01-29T05:30:36.143Z,77.05
2024-01-29T05:33:24.170Z,77.24
2024-01-29T05:35:49.614Z,77.21
2024-01-29T05:38:16.341Z,77.25
2024-01-29T05:40:42.986Z,77.47
2024-01-29T05:43:09.743Z,77.25
2024-01-29T05:45:36.454Z,77.69
2024-01-29T05:48:05.433Z,77.42
2024-01-29T05:50:32.233Z,77.16
2024-01-29T05:52:58.994Z,77.39
2024-01-29T05:55:26.120Z,77.20
2024-01-29T05:57:52.910Z,77.36
2024-01-29T06:00:20.347Z,77.33
2024-01-29T06:02:49.133Z,77.20
2024-01-29T06:05:16.129Z,77.43
2024-01-29T06:07:43.346Z,77.24
2024-01-29T06:10:13.049Z,76.71
2024-01-29T06:12:39.779Z,77.04
2024-01-29T06:15:06.773Z,76.79
2024-01-29T06:17:33.548Z,76.99
2024-01-29T06:20:14.512Z,76.69
2024-01-29T06:22:44.608Z,76.90
2024-01-29T06:25:11.544Z,76.84
2024-01-29T06:27:39.443Z,76.62
2024-01-29T06:30:06.952Z,77.21
2024-01-29T06:32:33.949Z,76.78
2024-01-29T06:35:00.923Z,76.70
2024-01-29T06:37:27.745Z,76.74
2024-01-29T06:39:54.554Z,76.66
2024-01-29T06:42:21.403Z,77.01
2024-01-29T06:44:48.046Z,76.90
2024-01-29T06:47:18.872Z,76.95
2024-01-29T06:49:45.831Z,77.12
2024-01-29T06:52:15.720Z,77.52
2024-01-29T06:54:45.353Z,77.66
2024-01-29T06:57:12.055Z,77.83
2024-01-29T06:59:38.764Z,77.98
2024-01-29T07:02:07.329Z,77.70
2024-01-29T07:04:34.269Z,77.71
2024-01-29T07:07:01.737Z,77.41
2024-01-29T07:09:30.535Z,77.38
2024-01-29T07:11:57.721Z,77.18
2024-01-29T07:14:25.874Z,76.99
2024-01-29T07:16:53.229Z,77.12
2024-01-29T07:19:24.920Z,76.98
2024-01-29T07:21:52.137Z,77.44
2024-01-29T07:24:18.919Z,77.86
2024-01-29T07:26:45.682Z,77.77
2024-01-29T07:29:12.971Z,77.94
2024-01-29T07:31:39.805Z,77.86
2024-01-29T07:34:06.833Z,77.87
2024-01-29T07:36:33.599Z,77.54
2024-01-29T07:39:00.278Z,78.13
2024-01-29T07:41:27.801Z,78.12
2024-01-29T07:43:54.558Z,77.73
2024-01-29T07:46:21.270Z,77.93
2024-01-29T07:48:48.236Z,78.09
2024-01-29T07:51:15.023Z,78.42
2024-01-29T07:53:41.708Z,78.28
2024-01-29T07:56:08.354Z,78.47
2024-01-29T07:58:35.033Z,78.50
2024-01-29T08:01:11.109Z,78.72
2024-01-29T08:03:38.008Z,78.62
2024-01-29T08:06:05.149Z,78.98
2024-01-29T08:08:37.426Z,78.50
2024-01-29T08:11:04.366Z,78.42
2024-01-29T08:13:31.065Z,77.75
2024-01-29T08:15:57.768Z,74.85
2024-01-29T08:18:25.723Z,69.69
2024-01-29T08:20:52.550Z,66.07
2024-01-29T08:23:19.614Z,61.46
2024-01-29T08:25:46.267Z,60.11
2024-01-29T08:28:13.053Z,58.48
2024-01-29T08:30:39.822Z,58.03
2024-01-29T08:33:06.593Z,55.91
2024-01-29T08:35:34.210Z,53.85
2024-01-29T08:38:02.635Z,52.17
2024-01-29T08:40:31.588Z,51.33
2024-01-29T08:42:59.119Z,48.73
2024-01-29T08:45:25.829Z,48.53
2024-01-29T08:47:52.661Z,47.29
2024-01-29T08:50:22.081Z,45.60
2024-01-29T08:52:48.839Z,43.84
2024-01-29T08:55:15.545Z,43.45
2024-01-29T08:57:42.311Z,42.58
2024-01-29T09:00:09.502Z,41.24
2024-01-29T09:02:36.314Z,40.09
2024-01-29T09:05:03.365Z,39.34
2024-01-29T09:07:30.147Z,38.01
2024-01-29T09:09:56.820Z,37.08
2024-01-29T09:12:23.514Z,37.06
2024-01-29T09:14:50.170Z,36.54
2024-01-29T09:17:16.899Z,36.35
2024-01-29T09:19:46.468Z,35.16
2024-01-29T09:22:13.573Z,35.20
2024-01-29T09:24:40.413Z,35.69
2024-01-29T09:27:07.236Z,37.10
2024-01-29T09:29:34.159Z,37.20
2024-01-29T09:32:00.874Z,38.18
2024-01-29T09:34:28.956Z,39.34
2024-01-29T09:36:55.877Z,40.63
2024-01-29T09:39:24.877Z,42.18
2024-01-29T09:41:51.975Z,43.65
2024-01-29T09:44:18.696Z,45.47
2024-01-29T09:46:45.460Z,46.85
2024-01-29T09:49:12.246Z,49.09
2024-01-29T09:51:39.097Z,50.37
2024-01-29T09:54:06.514Z,52.47
2024-01-29T09:56:33.734Z,53.75
2024-01-29T09:59:00.498Z,54.52
2024-01-29T10:01:27.444Z,55.37
2024-01-29T10:03:54.361Z,55.97
2024-01-29T10:06:21.185Z,56.95
2024-01-29T10:08:48.258Z,57.60
2024-01-29T10:11:15.109Z,57.59
2024-01-29T10:13:42.492Z,58.84
2024-01-29T10:16:09.470Z,60.19
2024-01-29T10:18:36.791Z,59.72
2024-01-29T10:21:05.464Z,60.25
2024-01-29T10:23:32.532Z,60.30
2024-01-29T10:25:59.782Z,60.07
2024-01-29T10:28:28.117Z,60.66
2024-01-29T10:30:59.618Z,61.32
2024-01-29T10:33:26.706Z,60.50
2024-01-29T10:35:53.737Z,60.48
2024-01-29T10:38:26.243Z,60.23
2024-01-29T10:40:53.120Z,60.41
2024-01-29T10:43:22.580Z,60.39
2024-01-29T10:45:52.835Z,61.72
2024-01-29T10:48:24.112Z,62.34
2024-01-29T10:50:51.506Z,62.01
2024-01-29T10:53:18.735Z,62.24
2024-01-29T10:55:46.065Z,61.97
2024-01-29T10:58:16.237Z,62.44
2024-01-29T11:00:44.330Z,61.59
2024-01-29T11:03:12.295Z,62.20
2024-01-29T11:05:39.772Z,62.63
2024-01-29T11:08:08.552Z,62.61
2024-01-29T11:10:35.720Z,61.23
2024-01-29T11:13:02.646Z,60.90
2024-01-29T11:15:30.081Z,60.45
2024-01-29T11:17:59.918Z,60.16
2024-01-29T11:20:26.713Z,59.96
2024-01-29T11:23:00.543Z,59.58
2024-01-29T11:25:30.425Z,59.72
2024-01-29T11:28:00.249Z,60.40
2024-01-29T11:30:27.922Z,60.28
2024-01-29T11:32:56.185Z,60.93
2024-01-29T11:35:28.708Z,60.29
2024-01-29T11:38:07.068Z,60.71
2024-01-29T11:40:34.648Z,60.52
2024-01-29T11:43:20.955Z,61.25
2024-01-29T11:45:51.759Z,60.39
2024-01-29T11:48:20.575Z,60.70
2024-01-29T11:50:52.666Z,59.41
2024-01-29T11:53:27.274Z,59.26
2024-01-29T11:55:54.782Z,58.95
2024-01-29T11:58:22.799Z,59.53
2024-01-29T12:00:51.012Z,60.26
2024-01-29T12:03:22.541Z,59.64
2024-01-29T12:05:50.316Z,59.10
2024-01-29T12:08:18.262Z,59.65
2024-01-29T12:10:45.971Z,59.76
2024-01-29T12:13:13.901Z,59.30
2024-01-29T12:15:40.846Z,59.83
2024-01-29T12:18:10.593Z,59.14
2024-01-29T12:20:38.340Z,58.67
2024-01-29T12:23:05.628Z,58.75
2024-01-29T12:25:32.913Z,59.11
2024-01-29T12:28:04.686Z,57.92
2024-01-29T12:30:31.987Z,57.32
2024-01-29T12:32:58.782Z,57.97
2024-01-29T12:35:29.168Z,58.47
2024-01-29T12:38:09.311Z,57.72
2024-01-29T12:40:36.554Z,56.87
2024-01-29T12:43:07.144Z,59.03
2024-01-29T12:45:35.265Z,57.47
2024-01-29T12:48:18.590Z,57.53
2024-01-29T12:50:45.640Z,57.98
2024-01-29T12:53:13.700Z,58.28
2024-01-29T12:55:40.643Z,57.62
2024-01-29T12:58:07.668Z,58.26
2024-01-29T13:00:34.704Z,58.08
2024-01-29T13:03:03.804Z,57.66
2024-01-29T13:05:32.100Z,57.89
2024-01-29T13:07:58.932Z,58.02
2024-01-29T13:10:28.639Z,58.21
2024-01-29T13:12:55.443Z,58.18
2024-01-29T13:15:22.184Z,57.23
2024-01-29T13:17:49.076Z,57.35
2024-01-29T13:20:15.888Z,56.83
2024-01-29T13:22:42.627Z,57.50
2024-01-29T13:25:09.609Z,55.92
2024-01-29T13:27:36.698Z,56.75
2024-01-29T13:30:03.856Z,57.32
2024-01-29T13:32:30.578Z,56.91
2024-01-29T13:34:57.263Z,57.05
2024-01-29T13:37:24.051Z,57.12
2024-01-29T13:39:50.769Z,57.64
2024-01-29T13:42:17.454Z,57.02
2024-01-29T13:44:44.505Z,56.24
2024-01-29T13:47:11.671Z,56.92
2024-01-29T13:49:39.010Z,55.92
2024-01-29T13:52:06.342Z,56.68
2024-01-29T13:54:34.527Z,56.68
2024-01-29T13:57:01.429Z,57.59
2024-01-29T13:59:28.113Z,56.29
2024-01-29T14:01:58.970Z,55.76
2024-01-29T14:04:25.766Z,56.00
2024-01-29T14:06:59.701Z,57.10
2024-01-29T14:09:27.015Z,56.68
2024-01-29T14:11:53.761Z,56.57
2024-01-29T14:14:23.548Z,56.06
2024-01-29T14:16:53.872Z,56.48
2024-01-29T14:19:20.632Z,56.05
2024-01-29T14:21:47.393Z,56.31
2024-01-29T14:24:14.210Z,56.85
2024-01-29T14:26:42.640Z,57.24
2024-01-29T14:29:09.647Z,55.45
2024-01-29T14:31:37.139Z,56.40
2024-01-29T14:34:05.224Z,56.18
2024-01-29T14:36:32.034Z,55.44
2024-01-29T14:39:06.931Z,55.64
2024-01-29T14:41:33.594Z,55.54
2024-01-29T14:44:00.301Z,55.93
2024-01-29T14:46:27.146Z,56.47
2024-01-29T14:48:53.805Z,56.85
2024-01-29T14:51:20.630Z,56.67
2024-01-29T14:53:47.376Z,56.39
2024-01-29T14:56:14.056Z,56.77
2024-01-29T14:58:40.846Z,56.32
2024-01-29T15:01:07.866Z,56.80
2024-01-29T15:03:35.313Z,56.55
2024-01-29T15:06:02.273Z,56.70
2024-01-29T15:08:29.038Z,57.14
2024-01-29T15:10:58.627Z,57.35
2024-01-29T15:13:25.955Z,57.38
2024-01-29T15:15:52.671Z,57.12
2024-01-29T15:18:19.574Z,57.15
2024-01-29T15:20:46.372Z,57.26
2024-01-29T15:23:13.253Z,57.15
2024-01-29T15:25:40.080Z,57.67
2024-01-29T15:28:08.645Z,57.36
2024-01-29T15:30:38.348Z,57.32
2024-01-29T15:33:07.901Z,57.75
2024-01-29T15:35:34.711Z,58.07
2024-01-29T15:38:01.371Z,58.50
2024-01-29T15:40:28.193Z,58.12
2024-01-29T15:42:56.951Z,58.33
2024-01-29T15:45:23.985Z,58.88
2024-01-29T15:47:50.751Z,58.43
2024-01-29T15:50:17.527Z,58.78
2024-01-29T15:52:45.660Z,59.10
2024-01-29T15:55:12.370Z,58.94
2024-01-29T15:57:40.155Z,59.60
2024-01-29T16:00:07.516Z,59.61
2024-01-29T16:02:34.190Z,59.71
2024-01-29T16:05:00.879Z,60.24
2024-01-29T16:07:27.642Z,60.71
2024-01-29T16:09:54.526Z,60.69
2024-01-29T16:12:22.958Z,60.88
2024-01-29T16:14:49.646Z,60.64
2024-01-29T16:17:16.476Z,61.35
2024-01-29T16:19:43.230Z,61.00
2024-01-29T16:22:09.993Z,61.04
2024-01-29T16:24:38.898Z,61.28
2024-01-29T16:27:06.295Z,61.96
2024-01-29T16:29:32.940Z,61.72
2024-01-29T16:32:00.904Z,62.31
2024-01-29T16:34:30.193Z,62.00
2024-01-29T16:37:09.342Z,62.24
2024-01-29T16:39:36.178Z,62.67
2024-01-29T16:42:02.999Z,62.83
2024-01-29T16:44:29.791Z,62.71
2024-01-29T16:46:56.471Z,62.88
2024-01-29T16:49:23.596Z,63.09
2024-01-29T16:51:50.373Z,63.07
2024-01-29T16:54:17.105Z,63.21
2024-01-29T16:56:45.899Z,62.96
2024-01-29T16:59:12.689Z,62.98
2024-01-29T17:01:40.027Z,62.64
2024-01-29T17:04:07.337Z,62.92
2024-01-29T17:06:35.418Z,62.39
2024-01-29T17:09:02.322Z,62.49
2024-01-29T17:11:29.017Z,61.92
2024-01-29T17:13:55.723Z,61.64
2024-01-29T17:16:23.079Z,61.94
2024-01-29T17:18:50.183Z,61.32
2024-01-29T17:21:17.362Z,61.38
2024-01-29T17:23:44.076Z,61.31
2024-01-29T17:26:10.935Z,61.27
2024-01-29T17:28:37.962Z,61.86
2024-01-29T17:31:06.045Z,61.90
2024-01-29T17:33:33.117Z,61.78
2024-01-29T17:35:59.871Z,62.06
2024-01-29T17:38:26.689Z,62.21
2024-01-29T17:40:53.500Z,62.57
2024-01-29T17:43:20.258Z,63.23
2024-01-29T17:45:47.005Z,63.48
2024-01-29T17:48:13.868Z,63.63
2024-01-29T17:50:40.768Z,63.94
2024-01-29T17:53:07.413Z,63.85
2024-01-29T17:55:34.116Z,63.87
2024-01-29T17:58:00.892Z,64.77
2024-01-29T18:00:28.916Z,64.61
2024-01-29T18:02:55.662Z,64.90
2024-01-29T18:05:23.115Z,64.76
2024-01-29T18:07:49.950Z,65.24
2024-01-29T18:10:16.831Z,65.23
2024-01-29T18:12:43.611Z,65.46
2024-01-29T18:15:10.369Z,65.14
2024-01-29T18:17:37.080Z,65.66
2024-01-29T18:20:04.649Z,65.83
2024-01-29T18:22:32.814Z,65.67
2024-01-29T18:24:59.633Z,66.01
2024-01-29T18:27:26.318Z,65.91
2024-01-29T18:29:52.978Z,65.53
2024-01-29T18:32:19.649Z,65.52
2024-01-29T18:34:46.639Z,65.95
2024-01-29T18:37:13.565Z,65.34
2024-01-29T18:39:40.269Z,65.51
2024-01-29T18:42:07.383Z,65.45
2024-01-29T18:44:34.121Z,65.68
2024-01-29T18:47:00.786Z,65.34
2024-01-29T18:49:28.370Z,65.43
2024-01-29T18:52:02.786Z,65.64
2024-01-29T18:54:29.516Z,65.47
2024-01-29T18:56:56.162Z,65.28
2024-01-29T18:59:23.942Z,64.91
2024-01-29T19:01:50.673Z,65.18
2024-01-29T19:04:17.555Z,65.36
2024-01-29T19:06:44.647Z,65.10
2024-01-29T19:09:15.533Z,65.29
2024-01-29T19:11:42.515Z,64.90
2024-01-29T19:14:09.880Z,65.42
2024-01-29T19:16:36.679Z,65.39
2024-01-29T19:19:04.819Z,65.00
2024-01-29T19:21:31.619Z,65.12
2024-01-29T19:23:58.289Z,65.22
2024-01-29T19:26:25.309Z,65.11
2024-01-29T19:28:52.022Z,64.91
2024-01-29T19:31:18.791Z,64.70
2024-01-29T19:33:45.606Z,64.94
2024-01-29T19:36:14.386Z,64.56
2024-01-29T19:38:41.159Z,64.96
2024-01-29T19:41:07.884Z,64.78
2024-01-29T19:43:35.858Z,64.60
2024-01-29T19:46:02.772Z,64.72
2024-01-29T19:48:29.459Z,64.22
2024-01-29T19:50:56.124Z,64.20
2024-01-29T19:53:22.883Z,63.69
2024-01-29T19:55:49.570Z,64.09
2024-01-29T19:58:16.412Z,63.57
2024-01-29T20:00:43.268Z,64.03
2024-01-29T20:03:09.998Z,63.62
2024-01-29T20:05:36.770Z,63.38
2024-01-29T20:08:03.673Z,63.73
2024-01-29T20:10:30.482Z,63.97
2024-01-29T20:12:57.309Z,64.01
2024-01-29T20:15:25.425Z,64.10
2024-01-29T20:17:52.172Z,63.64
2024-01-29T20:20:19.692Z,64.03
2024-01-29T20:22:47.195Z,63.87
2024-01-29T20:25:14.114Z,64.19
2024-01-29T20:27:43.282Z,64.47
2024-01-29T20:30:10.450Z,64.37
2024-01-29T20:32:38.670Z,64.73
2024-01-29T20:35:11.794Z,64.53
2024-01-29T20:37:40.343Z,64.51
2024-01-29T20:40:07.860Z,64.67
2024-01-29T20:42:34.876Z,64.37
2024-01-29T20:45:01.643Z,64.25
2024-01-29T20:47:28.328Z,64.03
2024-01-29T20:49:55.301Z,64.09
2024-01-29T20:52:22.384Z,63.88
2024-01-29T20:54:49.201Z,63.47
2024-01-29T20:57:15.916Z,62.99
2024-01-29T20:59:42.914Z,63.18
2024-01-29T21:02:10.513Z,63.46
2024-01-29T21:04:41.173Z,63.24
2024-01-29T21:09:39.534Z,63.27
2024-01-29T21:12:07.158Z,63.07
2024-01-29T21:14:33.954Z,63.08
2024-01-29T21:17:02.143Z,62.64
2024-01-29T21:19:29.014Z,62.86
2024-01-29T21:21:55.822Z,62.85
2024-01-29T21:24:22.656Z,63.02
2024-01-29T21:26:49.440Z,62.83
2024-01-29T21:29:16.153Z,62.91
2024-01-29T21:31:42.830Z,62.82
2024-01-29T21:34:09.584Z,62.99
2024-01-29T21:36:36.432Z,62.58
2024-01-29T21:39:04.856Z,63.01
2024-01-29T21:41:31.538Z,62.21
2024-01-29T21:43:58.211Z,62.77
2024-01-29T21:46:25.534Z,62.66
2024-01-29T21:48:52.556Z,62.69
2024-01-29T21:51:20.865Z,62.73
2024-01-29T21:53:47.513Z,62.79
2024-01-29T21:56:14.281Z,62.92
2024-01-29T21:58:41.084Z,63.10
2024-01-29T22:01:07.861Z,63.15
2024-01-29T22:03:34.839Z,63.36
2024-01-29T22:06:01.792Z,63.39
2024-01-29T22:08:30.589Z,63.25
2024-01-29T22:10:57.272Z,63.46
2024-01-29T22:13:25.362Z,63.26
2024-01-29T22:15:52.349Z,63.16
2024-01-29T22:18:19.206Z,63.24
2024-01-29T22:20:45.841Z,63.40
2024-01-29T22:23:12.476Z,63.53
2024-01-29T22:25:40.565Z,63.57
2024-01-29T22:28:07.363Z,63.89
2024-01-29T22:30:34.076Z,64.02
2024-01-29T22:33:00.836Z,64.35
2024-01-29T22:35:27.618Z,64.04
2024-01-29T22:37:54.493Z,63.60
2024-01-29T22:40:21.315Z,64.11
2024-01-29T22:42:48.068Z,63.85
2024-01-29T22:45:14.838Z,63.92
2024-01-29T22:47:41.536Z,64.38
2024-01-29T22:50:10.471Z,64.84
2024-01-29T22:52:37.290Z,64.41
2024-01-29T22:55:04.243Z,64.38
2024-01-29T22:57:30.930Z,64.09
2024-01-29T22:59:57.749Z,64.39
2024-01-29T23:02:24.590Z,64.62
2024-01-29T23:04:51.560Z,64.88
2024-01-29T23:07:18.355Z,64.06
2024-01-29T23:09:45.092Z,64.46
2024-01-29T23:12:11.809Z,64.64
2024-01-29T23:14:38.570Z,64.72
2024-01-29T23:17:05.265Z,64.94
2024-01-29T23:19:31.957Z,64.78
2024-01-29T23:21:58.748Z,66.00
2024-01-29T23:24:25.436Z,65.90
2024-01-29T23:26:52.105Z,65.73
2024-01-29T23:29:18.947Z,66.36
2024-01-29T23:31:45.562Z,66.26
2024-01-29T23:34:12.408Z,66.51
2024-01-29T23:36:39.512Z,66.14
2024-01-29T23:39:08.366Z,66.11
2024-01-29T23:41:35.673Z,66.09
2024-01-29T23:44:02.380Z,65.78
2024-01-29T23:46:29.117Z,65.89
2024-01-29T23:48:56.122Z,66.09
2024-01-29T23:51:22.869Z,65.86
2024-01-29T23:53:49.499Z,65.89
2024-01-29T23:56:16.183Z,66.05
2024-01-29T23:58:42.911Z,66.13
